Time;durP1;ratioP1;P1;durP2;ratioP2;P2;SDS_P1;SDS_P2;PMS_P1;PMS_P2;Temp;Humidity;BMP_temperature;BMP_pressure;BME280_temperature;BME280_humidity;BME280_pressure;Samples;Min_cycle;Max_cycle;Signal;HPM_P1;HPM_P2
2022/08/22 00:02:42;;;;;;;5.60;0.60;;;;;;;20.76;67.65;101086.44;7382990;19;20010;-63
2022/08/22 00:05:47;;;;;;;5.63;0.65;;;;;;;20.71;67.82;101073.72;7379144;19;20030;-63
2022/08/22 00:08:57;;;;;;;9.85;0.68;;;;;;;20.69;67.88;101078.44;7385858;19;20403;-63
2022/08/22 00:12:07;;;;;;;6.55;0.65;;;;;;;20.67;68.33;101085.06;7388371;19;20045;-66
2022/08/22 00:14:50;;;;;;;10.50;0.70;;;;;;;20.61;68.23;101076.03;7387373;19;20063;-64
2022/08/22 00:17:48;;;;;;;4.88;0.98;;;;;;;20.61;68.13;101084.06;7390158;19;20479;-64
2022/08/22 00:20:40;;;;;;;8.48;0.98;;;;;;;20.60;68.78;101085.06;7385200;19;20014;-64
2022/08/22 00:23:29;;;;;;;5.82;0.63;;;;;;;20.60;68.86;101090.44;7384672;19;20010;-64
2022/08/22 00:26:02;;;;;;;7.90;0.90;;;;;;;20.56;68.58;101081.19;7387601;19;20037;-65
2022/08/22 00:28:37;;;;;;;5.10;0.68;;;;;;;20.51;68.67;101069.47;7387503;19;20288;-66
2022/08/22 00:31:30;;;;;;;4.32;0.50;;;;;;;20.48;69.18;101073.38;7386767;19;20018;-65
2022/08/22 00:34:03;;;;;;;;;;;;;;;20.46;69.31;101075.47;7384505;19;20043;-66
2022/08/22 00:36:50;;;;;;;;;;;;;;;20.43;69.47;101071.34;7387962;19;20544;-65
2022/08/22 00:39:31;;;;;;;6.10;0.85;;;;;;;20.40;69.62;101060.28;7384092;19;19957;-66
2022/08/22 00:42:26;;;;;;;6.00;0.82;;;;;;;20.35;69.38;101047.53;7389193;19;20025;-66
2022/08/22 00:45:16;;;;;;;6.70;0.57;;;;;;;20.27;69.66;101042.38;7389414;19;20057;-66
2022/08/22 00:48:01;;;;;;;5.65;0.80;;;;;;;20.24;70.10;101042.81;7388116;19;20041;-66
2022/08/22 00:50:48;;;;;;;6.03;0.80;;;;;;;20.23;70.07;101043.00;7387083;19;20296;-65
2022/08/22 00:53:29;;;;;;;7.85;1.60;;;;;;;20.22;70.32;101042.19;7384978;19;20091;-66
2022/08/22 00:56:03;;;;;;;7.43;0.60;;;;;;;20.21;70.32;101048.59;7389805;19;20014;-66
2022/08/22 00:58:59;;;;;;;9.32;0.60;;;;;;;20.21;70.92;101045.09;7385757;19;20007;-66
2022/08/22 01:02:09;;;;;;;6.10;0.80;;;;;;;20.17;70.35;101030.47;7387709;19;20445;-66
2022/08/22 01:05:14;;;;;;;6.63;0.70;;;;;;;20.12;70.51;101033.78;7381756;19;20613;-67
2022/08/22 01:08:14;;;;;;;8.48;1.27;;;;;;;20.11;71.17;101034.84;7378861;19;20006;-68
2022/08/22 01:11:18;;;;;;;7.38;0.60;;;;;;;20.12;71.03;101041.00;7386870;19;20030;-64
2022/08/22 01:14:11;;;;;;;6.25;0.70;;;;;;;20.07;71.12;101036.28;7383128;19;20474;-64
2022/08/22 01:16:59;;;;;;;10.32;0.93;;;;;;;20.03;71.62;101043.91;7387531;19;20022;-64
2022/08/22 01:19:59;;;;;;;6.90;1.00;;;;;;;20.01;71.30;101045.94;7378611;19;20014;-63
2022/08/22 01:22:59;;;;;;;8.85;0.95;;;;;;;20.02;72.06;101044.09;7385264;19;20323;-65
2022/08/22 01:25:42;;;;;;;5.32;0.70;;;;;;;20.01;71.83;101045.94;7386252;19;20014;-63
2022/08/22 01:28:29;;;;;;;8.15;1.13;;;;;;;20.03;72.31;101051.09;7384558;19;20014;-64
2022/08/22 01:31:08;;;;;;;11.57;0.88;;;;;;;20.01;71.97;101047.81;7383566;19;20371;-64
2022/08/22 01:34:12;;;;;;;6.28;0.70;;;;;;;20.01;71.48;101048.63;7385734;19;20014;-65
2022/08/22 01:37:10;;;;;;;5.18;0.50;;;;;;;20.00;71.58;101055.00;7383323;19;20392;-66
2022/08/22 01:39:47;;;;;;;5.55;0.80;;;;;;;19.97;71.84;101068.78;7384499;19;20014;-66
2022/08/22 01:42:34;;;;;;;3.67;1.15;;;;;;;19.95;71.70;101078.03;7385603;19;20281;-66
2022/08/22 01:45:13;;;;;;;5.60;0.70;;;;;;;19.91;71.92;101085.63;7385076;19;20018;-65
2022/08/22 01:47:58;;;;;;;4.65;0.70;;;;;;;19.90;72.33;101085.84;7383584;19;20050;-66
2022/08/22 01:50:39;;;;;;;6.20;0.70;;;;;;;19.87;72.28;101080.91;7380656;19;20010;-66
2022/08/22 01:53:14;;;;;;;4.00;1.00;;;;;;;19.85;72.09;101081.13;7381395;19;20342;-66
2022/08/22 01:55:46;;;;;;;7.07;0.80;;;;;;;19.83;72.30;101077.00;7385438;19;20018;-65
2022/08/22 01:58:16;;;;;;;6.00;0.70;;;;;;;19.77;71.93;101057.28;7384743;19;20011;-67
2022/08/22 02:01:12;;;;;;;10.90;1.50;;;;;;;19.70;72.75;101048.50;7385165;19;20018;-66
2022/08/22 02:03:59;;;;;;;6.70;0.93;;;;;;;19.67;72.71;101040.03;7384388;19;20494;-66
2022/08/22 02:06:51;;;;;;;5.43;1.02;;;;;;;19.61;72.72;101045.19;7382409;19;20011;-66
2022/08/22 02:09:33;;;;;;;8.18;1.25;;;;;;;19.58;72.96;101037.59;7382166;19;20033;-66
2022/08/22 02:12:10;;;;;;;2.78;0.60;;;;;;;19.56;73.27;101036.16;7384803;19;20014;-66
2022/08/22 02:15:12;;;;;;;5.85;0.90;;;;;;;19.54;73.42;101019.53;7382445;19;20089;-66
2022/08/22 02:18:11;;;;;;;5.93;0.67;;;;;;;19.57;74.06;101014.59;7383932;19;20086;-66
2022/08/22 02:20:47;;;;;;;7.50;0.65;;;;;;;19.57;73.67;101013.78;7381224;19;20007;-63
2022/08/22 02:23:32;;;;;;;6.80;0.70;;;;;;;19.54;73.62;101012.34;7381424;19;20595;-65
2022/08/22 02:26:02;;;;;;;5.25;0.40;;;;;;;19.53;73.83;101024.06;7383283;19;20070;-64
2022/08/22 02:28:50;;;;;;;6.57;0.80;;;;;;;19.51;73.89;101027.94;7384265;19;20013;-66
2022/08/22 02:32:05;;;;;;;7.78;0.85;;;;;;;19.50;74.31;101015.66;7381886;19;20069;-67
2022/08/22 02:34:48;;;;;;;6.15;0.70;;;;;;;19.51;74.40;101012.75;7379677;19;20479;-66
2022/08/22 02:37:33;;;;;;;;;;;;;;;19.51;74.69;101010.06;7384563;19;20678;-66
2022/08/22 02:40:11;;;;;;;5.22;0.70;;;;;;;19.45;73.95;101016.25;7384777;19;19941;-66
2022/08/22 02:42:44;;;;;;;7.00;0.60;;;;;;;19.44;74.39;101017.28;7377590;19;20022;-65
2022/08/22 02:45:17;;;;;;;;;;;;;;;19.45;74.40;101012.78;7380480;19;20019;-65
2022/08/22 02:47:58;;;;;;;6.15;0.60;;;;;;;19.39;74.15;101006.38;7379080;19;19921;-65
2022/08/22 02:50:50;;;;;;;9.70;0.90;;;;;;;19.40;74.48;101004.53;7376253;19;20073;-67
2022/08/22 02:53:46;;;;;;;5.85;0.95;;;;;;;19.40;74.43;101013.34;7379602;19;20359;-66
2022/08/22 02:56:40;;;;;;;4.38;0.65;;;;;;;19.40;74.21;101013.34;7379060;19;20018;-65
2022/08/22 02:59:26;;;;;;;6.15;1.20;;;;;;;19.35;74.27;101013.13;7383176;19;20126;-66
2022/08/22 03:01:54;;;;;;;10.95;1.55;;;;;;;19.33;74.28;101015.19;7385753;19;20130;-66
2022/08/22 03:04:31;;;;;;;8.50;0.70;;;;;;;19.32;74.73;101010.88;7381355;19;20026;-65
2022/08/22 03:07:35;;;;;;;6.45;0.63;;;;;;;19.33;74.68;101015.19;7383484;19;20027;-67
2022/08/22 03:10:11;;;;;;;6.18;0.70;;;;;;;19.30;74.56;101015.59;7381873;19;20022;-66
2022/08/22 03:12:41;;;;;;;5.45;0.60;;;;;;;19.28;75.08;101015.00;7383061;19;20553;-67
2022/08/22 03:15:24;;;;;;;8.02;0.63;;;;;;;19.27;75.06;101020.53;7382554;19;20021;-66
2022/08/22 03:17:58;;;;;;;4.60;0.68;;;;;;;19.26;75.12;101018.88;7384667;19;20489;-67
2022/08/22 03:20:53;;;;;;;7.78;0.70;;;;;;;19.23;75.03;101012.94;7380729;19;20020;-68
2022/08/22 03:23:40;;;;;;;3.67;1.60;;;;;;;19.21;75.53;101009.66;7380766;19;20015;-67
2022/08/22 03:26:22;;;;;;;7.60;0.70;;;;;;;19.21;76.12;101006.16;7384239;19;20018;-67
2022/08/22 03:28:55;;;;;;;6.03;0.70;;;;;;;19.21;75.41;101006.16;7382010;19;20010;-63
2022/08/22 03:31:28;;;;;;;5.07;0.60;;;;;;;19.19;75.54;101010.88;7383351;19;20134;-64
2022/08/22 03:34:20;;;;;;;6.85;0.90;;;;;;;19.19;75.67;101002.88;7380309;19;20037;-64
2022/08/22 03:37:18;;;;;;;7.90;0.75;;;;;;;19.15;75.86;100993.63;7384519;19;20660;-67
2022/08/22 03:40:06;;;;;;;4.78;0.50;;;;;;;19.14;75.66;100989.34;7380607;19;20033;-67
2022/08/22 03:43:21;;;;;;;6.35;0.63;;;;;;;19.13;75.57;100998.34;7386548;19;20279;-66
2022/08/22 03:46:13;;;;;;;6.15;0.80;;;;;;;19.10;76.07;100999.56;7386731;19;20014;-67
2022/08/22 03:48:59;;;;;;;4.00;0.47;;;;;;;19.06;76.25;101008.19;7390349;19;20118;-66
2022/08/22 03:51:39;;;;;;;6.83;0.80;;;;;;;19.01;76.01;101003.47;7389916;19;20033;-63
2022/08/22 03:54:25;;;;;;;6.07;0.73;;;;;;;18.97;76.76;101009.41;7389057;19;20756;-63
2022/08/22 03:57:29;;;;;;;7.35;0.60;;;;;;;18.93;77.31;101014.34;7389084;19;20006;-63
2022/08/22 04:00:11;;;;;;;4.97;0.63;;;;;;;18.94;77.82;101020.50;7390581;19;20070;-62
2022/08/22 04:02:38;;;;;;;3.42;0.63;;;;;;;18.99;77.64;101026.06;7390464;19;20010;-63
2022/08/22 04:05:38;;;;;;;4.78;0.60;;;;;;;19.03;77.34;101022.78;7388302;19;20078;-64
2022/08/22 04:08:27;;;;;;;6.93;0.82;;;;;;;19.04;77.33;101021.75;7388204;19;20042;-63
2022/08/22 04:11:41;;;;;;;5.30;0.60;;;;;;;19.07;77.25;101023.19;7390815;19;20479;-65
2022/08/22 04:14:22;;;;;;;6.72;1.23;;;;;;;19.09;77.60;101011.28;7386162;19;20019;-64
2022/08/22 04:17:00;;;;;;;4.93;1.17;;;;;;;19.12;77.72;101016.22;7390347;19;20371;-66
2022/08/22 04:19:55;;;;;;;9.25;1.92;;;;;;;19.12;77.09;101018.06;7383941;19;20037;-66
2022/08/22 04:22:32;;;;;;;7.05;0.75;;;;;;;19.12;76.95;101015.38;7389824;19;20029;-65
2022/08/22 04:25:07;;;;;;;5.70;0.65;;;;;;;19.12;77.04;101018.06;7389882;19;20017;-64
2022/08/22 04:27:54;;;;;;;9.48;0.60;;;;;;;19.13;76.98;101023.19;7389295;19;20018;-63
2022/08/22 04:30:41;;;;;;;5.72;0.80;;;;;;;19.15;77.17;101023.78;7389877;19;20404;-67
2022/08/22 04:33:23;;;;;;;5.78;0.77;;;;;;;19.16;77.33;101013.94;7389752;19;20014;-65
2022/08/22 04:35:51;;;;;;;6.15;0.80;;;;;;;19.14;76.83;101021.34;7386173;19;20014;-66
2022/08/22 04:38:29;;;;;;;7.32;0.60;;;;;;;19.13;77.10;101017.03;7384919;19;20398;-67
2022/08/22 04:41:20;;;;;;;9.75;0.52;;;;;;;19.12;76.73;101020.72;7389198;19;20094;-67
2022/08/22 04:43:54;;;;;;;6.60;0.57;;;;;;;19.08;77.02;101022.97;7385459;19;20006;-66
2022/08/22 04:46:39;;;;;;;7.90;0.65;;;;;;;19.09;77.08;101035.31;7388990;19;20023;-63
2022/08/22 04:49:14;;;;;;;8.50;0.93;;;;;;;19.06;77.16;101038.38;7382700;19;20010;-69
2022/08/22 04:51:50;;;;;;;8.63;0.63;;;;;;;19.04;76.78;101040.44;7386899;19;20121;-65
2022/08/22 04:54:58;;;;;;;4.63;0.60;;;;;;;19.02;77.23;101047.81;7384468;19;20402;-66
2022/08/22 04:57:25;;;;;;;6.15;0.60;;;;;;;18.98;77.71;101056.41;7387759;19;20011;-67
2022/08/22 04:59:58;;;;;;;5.78;0.60;;;;;;;18.91;77.58;101066.22;7387992;19;20035;-64
2022/08/22 05:02:26;;;;;;;7.47;0.90;;;;;;;18.90;78.25;101077.91;7386518;19;20015;-64
2022/08/22 05:05:03;;;;;;;4.68;0.70;;;;;;;18.90;78.69;101070.75;7384936;19;20014;-67
2022/08/22 05:07:44;;;;;;;7.50;0.90;;;;;;;18.94;78.38;101060.50;7388414;19;20021;-66
2022/08/22 05:10:32;;;;;;;;;;;;;;;18.95;78.47;101044.28;7388942;19;20436;-67
2022/08/22 05:13:10;;;;;;;8.48;0.70;;;;;;;18.94;77.83;101041.84;7385489;19;20399;-67
2022/08/22 05:15:45;;;;;;;3.92;1.33;;;;;;;18.94;78.07;101039.19;7384594;19;20018;-68
2022/08/22 05:18:21;;;;;;;8.63;0.80;;;;;;;18.95;77.74;101032.78;7388001;19;20028;-62
2022/08/22 05:20:52;;;;;;;5.85;0.80;;;;;;;18.90;77.78;101025.41;7384212;19;20014;-63
2022/08/22 05:23:42;;;;;;;7.97;1.00;;;;;;;18.91;78.24;101032.38;7386792;19;20406;-64
2022/08/22 05:26:12;;;;;;;8.52;0.60;;;;;;;18.92;78.53;101020.69;7388420;19;20030;-65
2022/08/22 05:29:03;;;;;;;8.27;0.73;;;;;;;18.91;78.13;101021.72;7386901;19;20015;-64
2022/08/22 05:31:46;;;;;;;7.53;0.60;;;;;;;18.90;78.09;101024.56;7387198;19;20378;-63
2022/08/22 05:34:18;;;;;;;3.17;0.50;;;;;;;18.87;78.11;101020.47;7382823;19;20082;-63
2022/08/22 05:36:54;;;;;;;4.40;0.80;;;;;;;18.89;78.40;101021.13;7388601;19;20376;-64
2022/08/22 05:39:24;;;;;;;5.60;0.80;;;;;;;18.90;78.46;101013.91;7385629;19;20098;-65
2022/08/22 05:41:56;;;;;;;4.07;0.60;;;;;;;18.92;78.39;101017.22;7388058;19;20513;-64
2022/08/22 05:44:31;;;;;;;6.68;0.90;;;;;;;18.95;78.40;101012.28;7385517;19;20029;-65
2022/08/22 05:47:38;;;;;;;5.97;0.90;;;;;;;18.97;78.19;101020.09;7388870;19;20109;-63
2022/08/22 05:50:18;;;;;;;9.65;0.95;;;;;;;18.96;77.97;101029.09;7385031;19;20475;-64
2022/08/22 05:53:05;;;;;;;7.35;0.90;;;;;;;18.97;77.80;101020.09;7383967;19;20411;-64
2022/08/22 05:55:37;;;;;;;8.48;0.80;;;;;;;18.98;78.18;101017.22;7385840;19;20077;-67
2022/08/22 05:58:34;;;;;;;5.90;0.50;;;;;;;18.97;77.96;101017.41;7386640;19;20014;-67
2022/08/22 06:01:36;;;;;;;5.45;0.95;;;;;;;18.96;78.79;101011.25;7384576;19;20018;-67
2022/08/22 06:04:08;;;;;;;6.57;0.60;;;;;;;18.96;77.99;101005.09;7379524;19;20380;-66
2022/08/22 06:07:17;;;;;;;7.05;1.85;;;;;;;19.00;79.86;101020.50;7385507;19;20022;-66
2022/08/22 06:09:47;;;;;;;7.18;0.90;;;;;;;19.03;78.79;101022.78;7385386;19;20010;-67
2022/08/22 06:12:26;;;;;;;8.25;1.02;;;;;;;19.05;78.09;101036.72;7386322;19;20030;-66
2022/08/22 06:15:11;;;;;;;3.47;1.08;;;;;;;19.10;78.03;101036.09;7384663;19;20769;-66
2022/08/22 06:17:48;;;;;;;7.70;0.90;;;;;;;19.11;77.84;101033.25;7385335;19;20018;-70
2022/08/22 06:20:23;;;;;;;6.13;0.60;;;;;;;19.10;77.44;101030.75;7382459;19;20015;-66
2022/08/22 06:22:57;;;;;;;5.05;0.65;;;;;;;19.11;77.47;101027.06;7384361;19;20022;-68
2022/08/22 06:25:29;;;;;;;4.68;0.70;;;;;;;19.10;76.60;101025.44;7385523;19;20015;-67
2022/08/22 06:28:00;;;;;;;4.28;0.47;;;;;;;19.12;76.99;101023.41;7384607;19;20074;-67
2022/08/22 06:30:28;;;;;;;6.78;1.40;;;;;;;19.14;77.41;101022.19;7384465;19;20026;-66
2022/08/22 06:33:04;;;;;;;6.55;1.23;;;;;;;19.17;78.82;101013.75;7384509;19;20522;-66
2022/08/22 06:39:20;;;;;;;4.28;0.50;;;;;;;19.16;77.41;101006.75;7381104;19;20018;-66
2022/08/22 06:42:01;;;;;;;12.23;1.92;;;;;;;19.19;77.81;101002.88;7381883;19;20045;-66
2022/08/22 06:44:38;;;;;;;3.97;0.70;;;;;;;19.22;77.57;100992.63;7379662;19;20014;-65
2022/08/22 06:47:10;;;;;;;8.30;1.42;;;;;;;19.23;77.60;100990.78;7382059;19;20014;-66
2022/08/22 06:49:39;;;;;;;7.43;0.98;;;;;;;19.27;77.01;100992.00;7381745;19;20447;-66
2022/08/22 06:52:11;;;;;;;9.02;0.82;;;;;;;19.29;76.53;100984.63;7383067;19;20533;-66
2022/08/22 06:54:45;;;;;;;6.63;1.20;;;;;;;19.35;76.49;100983.75;7382712;19;20082;-66
2022/08/22 06:57:36;;;;;;;8.40;0.70;;;;;;;19.38;76.04;100979.88;7385188;19;20018;-66
2022/08/22 07:00:12;;;;;;;8.30;0.75;;;;;;;19.39;75.90;100985.03;7383003;19;20010;-65
2022/08/22 07:02:45;;;;;;;5.45;1.00;;;;;;;19.38;76.04;100982.56;7384475;19;20021;-65
2022/08/22 07:05:22;;;;;;;4.38;0.65;;;;;;;19.39;76.19;100989.53;7379935;19;20343;-64
2022/08/22 07:07:51;;;;;;;5.82;0.82;;;;;;;19.42;76.71;100991.78;7383619;19;20025;-64
2022/08/22 07:10:21;;;;;;;7.45;0.90;;;;;;;19.46;76.51;100993.84;7384065;19;20325;-66
2022/08/22 07:12:52;;;;;;;5.75;1.10;;;;;;;19.50;76.20;100987.09;7383209;19;20024;-65
2022/08/22 07:15:38;;;;;;;8.95;0.80;;;;;;;19.55;75.86;100991.81;7383514;19;20014;-64
2022/08/22 07:18:17;;;;;;;10.57;0.90;;;;;;;19.60;75.89;100984.00;7389510;19;20011;-65
2022/08/22 07:20:51;;;;;;;10.68;0.80;;;;;;;19.63;75.62;100988.91;7389301;19;20010;-64
2022/08/22 07:23:30;;;;;;;6.72;0.80;;;;;;;19.67;75.56;100983.97;7390557;19;20369;-64
2022/08/22 07:26:16;;;;;;;5.93;0.75;;;;;;;19.72;75.34;100982.31;7392640;19;20014;-65
2022/08/22 07:28:48;;;;;;;5.13;0.73;;;;;;;19.76;75.30;100978.19;7391755;19;20014;-65
2022/08/22 07:31:39;;;;;;;7.30;1.45;;;;;;;19.82;75.46;100979.22;7391941;19;20014;-64
2022/08/22 07:34:15;;;;;;;5.25;0.80;;;;;;;19.86;75.44;100975.91;7386635;19;20123;-65
2022/08/22 07:37:00;;;;;;;5.88;0.60;;;;;;;19.92;74.15;100985.75;7389892;19;20025;-66
2022/08/22 07:40:12;;;;;;;7.22;0.70;;;;;;;19.98;73.72;101000.13;7388548;19;20019;-66
2022/08/22 07:42:49;;;;;;;8.13;0.90;;;;;;;20.00;73.38;100998.09;7389359;19;20009;-67
2022/08/22 07:45:20;;;;;;;6.03;0.57;;;;;;;20.03;72.94;100993.13;7392431;19;20418;-67
2022/08/22 07:48:15;;;;;;;3.63;0.75;;;;;;;20.07;73.38;100996.19;7389560;19;20022;-68
2022/08/22 07:50:59;;;;;;;5.88;0.52;;;;;;;20.12;72.61;100988.38;7387678;19;20451;-67
2022/08/22 07:53:33;;;;;;;5.18;0.50;;;;;;;20.18;71.81;100992.03;7388089;19;20033;-67
2022/08/22 07:56:04;;;;;;;4.45;0.68;;;;;;;20.28;71.16;100997.75;7362042;19;20109;-66
2022/08/22 07:58:39;;;;;;;5.20;0.50;;;;;;;20.34;69.76;100997.78;7382494;19;20010;-66
2022/08/22 08:01:10;;;;;;;7.50;0.73;;;;;;;20.39;68.86;101002.47;7389227;19;20619;-66
2022/08/22 08:03:37;;;;;;;3.63;0.70;;;;;;;20.43;68.78;101009.03;7386212;19;20011;-65
2022/08/22 08:06:08;;;;;;;6.45;0.68;;;;;;;20.45;67.31;101006.97;7386712;19;20006;-64
2022/08/22 08:08:43;;;;;;;10.10;0.90;;;;;;;20.48;68.54;101003.88;7386146;19;20293;-65
2022/08/22 08:11:13;;;;;;;6.85;0.98;;;;;;;20.49;67.78;101008.19;7388295;19;20027;-63
2022/08/22 08:13:45;;;;;;;9.05;0.65;;;;;;;20.53;67.96;101008.56;7389564;19;20077;-65
2022/08/22 08:16:18;;;;;;;9.25;1.08;;;;;;;20.62;72.07;101010.00;7386987;19;20015;-64
2022/08/22 08:18:48;;;;;;;4.00;0.60;;;;;;;20.67;72.04;101002.94;7389132;19;20508;-63
2022/08/22 08:21:27;;;;;;;9.30;0.80;;;;;;;20.76;73.27;101008.88;7387136;19;20018;-62
2022/08/22 08:23:55;;;;;;;5.40;0.70;;;;;;;20.83;73.16;101010.47;7389274;19;20028;-64
2022/08/22 08:28:32;;;;;;;16.40;1.65;;;;;;;20.89;72.94;101016.81;7376129;19;20423;-63
2022/08/22 08:29:26;;;;;;;6.97;0.98;;;;;;;20.96;70.92;101011.41;7381477;19;20352;-64
2022/08/22 08:31:53;;;;;;;4.68;0.50;;;;;;;20.97;69.34;101016.56;7386496;19;20015;-64
2022/08/22 08:34:24;;;;;;;5.53;1.08;;;;;;;20.98;69.11;101014.72;7382946;19;20074;-63
2022/08/22 08:37:16;;;;;;;6.55;0.60;;;;;;;21.02;69.03;101008.72;7382278;19;20014;-68
2022/08/22 08:39:57;;;;;;;5.43;0.82;;;;;;;21.03;67.70;101010.31;7366987;19;20029;-67
2022/08/22 08:46:07;;;;;;;8.27;1.20;;;;;;;21.08;67.24;100996.31;7384868;19;20014;-66
2022/08/22 08:48:54;;;;;;;6.53;1.08;;;;;;;21.06;66.83;100983.16;7386777;19;20592;-67
2022/08/22 08:51:54;;;;;;;4.40;0.70;;;;;;;21.09;66.24;100980.03;7386653;19;20439;-68
2022/08/22 08:54:25;;;;;;;6.50;1.10;;;;;;;21.12;66.76;100970.75;7383219;19;20499;-66
2022/08/22 08:57:14;;;;;;;5.28;0.60;;;;;;;21.17;65.67;100963.75;7384459;19;20018;-66
2022/08/22 08:59:49;;;;;;;4.95;0.50;;;;;;;21.21;65.59;100964.94;7385226;19;20014;-67
2022/08/22 09:02:49;;;;;;;5.40;0.70;;;;;;;21.22;65.51;100963.91;7383746;19;20007;-66
2022/08/22 09:05:28;;;;;;;5.32;0.73;;;;;;;21.25;65.98;100959.94;7379500;19;20494;-67
2022/08/22 09:08:21;;;;;;;5.35;0.40;;;;;;;21.30;66.11;100968.97;7384557;19;20027;-66
2022/08/22 09:11:04;;;;;;;5.82;0.70;;;;;;;21.33;65.61;100962.38;7384600;19;20022;-66
2022/08/22 09:13:54;;;;;;;4.72;0.55;;;;;;;21.37;65.51;100960.88;7382705;19;20516;-66
2022/08/22 09:16:45;;;;;;;5.90;0.60;;;;;;;21.40;65.45;100964.97;7383042;19;20038;-67
2022/08/22 09:19:44;;;;;;;9.27;1.17;;;;;;;21.46;66.69;100964.91;7382126;19;20018;-67
2022/08/22 09:22:33;;;;;;;4.90;0.40;;;;;;;21.51;66.54;100961.56;7385322;19;20021;-66
2022/08/22 09:25:35;;;;;;;5.88;0.40;;;;;;;21.56;64.43;100957.19;7384858;19;20018;-67
2022/08/22 09:28:31;;;;;;;3.97;0.40;;;;;;;21.65;64.96;100960.38;7379941;19;20035;-67
2022/08/22 09:31:28;;;;;;;4.60;0.60;;;;;;;21.77;65.44;100962.13;7384036;19;20015;-67
2022/08/22 09:34:36;;;;;;;3.38;0.90;;;;;;;21.90;64.86;100963.00;7379884;19;20431;-66
2022/08/22 09:37:28;;;;;;;5.68;0.73;;;;;;;21.97;63.19;100961.91;7383806;19;20025;-65
2022/08/22 09:40:05;;;;;;;5.30;0.50;;;;;;;22.00;62.12;100963.31;7376850;19;20014;-66
2022/08/22 09:43:08;;;;;;;3.88;0.50;;;;;;;22.03;61.40;100969.06;7379464;19;20022;-66
2022/08/22 09:45:39;;;;;;;7.03;0.85;;;;;;;22.06;62.15;100967.78;7383567;19;20348;-66
2022/08/22 09:48:22;;;;;;;4.13;0.47;;;;;;;22.07;61.40;100972.13;7382867;19;20284;-65
2022/08/22 09:51:27;;;;;;;8.77;2.33;;;;;;;22.09;61.70;100976.22;7381629;19;20018;-65
2022/08/22 09:54:17;;;;;;;5.10;1.02;;;;;;;;;;7384297;19;20483;-66
2022/08/22 09:56:59;;;;;;;8.05;3.70;;;;;;;22.15;60.17;100964.56;7382204;19;20015;-67
2022/08/22 09:59:43;;;;;;;2.55;0.50;;;;;;;22.19;60.87;100967.66;7380694;19;20021;-66
2022/08/22 10:02:22;;;;;;;3.63;0.40;;;;;;;22.23;58.75;100970.69;7381828;19;20524;-66
2022/08/22 10:04:58;;;;;;;6.65;2.03;;;;;;;22.24;57.78;100977.69;7380201;19;20046;-66
2022/08/22 10:07:46;;;;;;;6.45;2.85;;;;;;;22.24;57.19;100967.78;7381866;19;20357;-66
2022/08/22 10:10:45;;;;;;;6.20;0.52;;;;;;;22.22;57.73;100975.22;7382632;19;20021;-67
2022/08/22 10:13:54;;;;;;;5.65;0.98;;;;;;;22.21;58.84;100978.13;7380281;19;20086;-67
2022/08/22 10:16:32;;;;;;;3.80;0.50;;;;;;;22.18;60.33;100987.44;7382364;19;20018;-66
2022/08/22 10:19:36;;;;;;;5.13;0.70;;;;;;;22.15;60.66;100977.97;7379372;19;20014;-66
2022/08/22 10:22:18;;;;;;;4.53;0.85;;;;;;;22.12;60.32;100981.13;7381976;19;20015;-65
2022/08/22 10:25:08;;;;;;;4.40;0.60;;;;;;;22.08;60.91;100971.91;7379485;19;20010;-66
2022/08/22 10:27:38;;;;;;;5.15;0.60;;;;;;;22.06;61.53;100973.97;7380663;19;20015;-66
2022/08/22 10:30:11;;;;;;;5.75;1.67;;;;;;;22.08;62.89;100976.44;7382374;19;20493;-66
2022/08/22 10:33:07;;;;;;;3.70;0.90;;;;;;;22.13;63.99;100968.53;7380307;19;20336;-67
2022/08/22 10:35:59;;;;;;;6.32;1.20;;;;;;;22.16;64.29;100965.41;7379032;19;20494;-65
2022/08/22 10:38:34;;;;;;;;;;;;;;;22.17;64.87;100975.91;7380557;19;20014;-65
2022/08/22 10:41:34;;;;;;;7.53;0.70;;;;;;;22.15;64.93;100979.84;7373095;19;19922;-65
2022/08/22 10:44:33;;;;;;;7.15;2.15;;;;;;;22.09;64.64;100967.34;7377845;19;20037;-66
2022/08/22 10:47:13;;;;;;;4.10;0.82;;;;;;;22.05;64.94;100979.53;7383466;19;20103;-66
2022/08/22 10:49:56;;;;;;;2.75;1.10;;;;;;;22.02;64.94;100966.59;7375617;19;20052;-67
2022/08/22 10:52:32;;;;;;;3.80;1.13;;;;;;;21.97;64.86;100963.78;7380584;19;20046;-66
2022/08/22 10:55:24;;;;;;;3.22;0.43;;;;;;;21.96;65.06;100964.81;7382129;19;20017;-62
2022/08/22 10:57:58;;;;;;;4.70;0.50;;;;;;;21.95;65.40;100965.84;7380265;19;20496;-63
2022/08/22 11:00:45;;;;;;;2.92;0.40;;;;;;;21.96;65.99;100960.28;7382674;19;20003;-64
2022/08/22 11:03:20;;;;;;;3.83;0.57;;;;;;;21.97;66.35;100969.13;7381183;19;20471;-63
2022/08/22 11:05:53;;;;;;;2.13;0.40;;;;;;;21.94;65.82;100962.34;7377491;19;20014;-63
2022/08/22 11:08:35;;;;;;;2.90;0.70;;;;;;;21.96;66.15;100968.31;7379184;19;20433;-61
2022/08/22 11:11:05;;;;;;;4.78;0.40;;;;;;;21.99;66.68;100962.50;7380300;19;20016;-64
2022/08/22 11:13:56;;;;;;;4.25;0.80;;;;;;;22.01;66.23;100964.97;7380979;19;20053;-62
2022/08/22 11:16:52;;;;;;;7.18;0.52;;;;;;;22.01;65.79;100963.09;7380536;19;20014;-63
2022/08/22 11:19:21;;;;;;;2.67;0.90;;;;;;;22.06;66.38;100973.16;7378372;19;20014;-62
2022/08/22 11:22:06;;;;;;;7.55;0.65;;;;;;;22.11;66.28;100967.94;7383307;19;20743;-64
2022/08/22 11:25:07;;;;;;;5.10;0.40;;;;;;;22.18;66.62;100960.63;7380682;19;20006;-63
2022/08/22 11:28:04;;;;;;;5.07;0.82;;;;;;;22.23;66.65;100955.41;7376584;19;20049;-63
2022/08/22 11:30:46;;;;;;;3.65;0.30;;;;;;;22.25;66.07;100953.31;7377108;19;20007;-64
2022/08/22 11:33:27;;;;;;;2.00;0.20;;;;;;;22.25;66.20;100942.59;7380547;19;20014;-64
2022/08/22 11:36:50;;;;;;;4.43;0.28;;;;;;;22.27;66.70;100950.41;7378060;19;20290;-64
2022/08/22 11:39:20;;;;;;;2.42;0.65;;;;;;;22.27;67.20;100955.78;7376099;19;20010;-66
2022/08/22 11:41:53;;;;;;;5.85;0.50;;;;;;;22.26;66.85;100954.94;7374807;19;20010;-67
2022/08/22 11:44:28;;;;;;;7.38;0.55;;;;;;;22.25;66.53;100950.63;7376636;19;20014;-63
2022/08/22 11:46:57;;;;;;;3.80;0.50;;;;;;;22.25;66.68;100942.59;7380027;19;20010;-67
2022/08/22 11:49:40;;;;;;;4.85;0.70;;;;;;;22.22;66.55;100943.03;7375774;19;20023;-65
2022/08/22 11:52:20;;;;;;;3.40;0.50;;;;;;;22.20;66.02;100947.00;7382162;19;20014;-66
2022/08/22 11:55:18;;;;;;;1.95;0.40;;;;;;;22.21;67.18;100940.59;7376654;19;20513;-65
2022/08/22 11:57:55;;;;;;;5.50;0.80;;;;;;;22.25;67.27;100937.22;7379037;19;20085;-66
2022/08/22 12:00:35;;;;;;;4.93;1.05;;;;;;;22.26;66.53;100914.72;7380279;19;20016;-66
2022/08/22 12:03:29;;;;;;;17.05;1.83;;;;;;;22.27;66.36;100899.47;7380582;19;20018;-66
2022/08/22 12:06:06;;;;;;;2.67;0.50;;;;;;;22.28;66.69;100907.28;7381780;19;20471;-66
2022/08/22 12:08:39;;;;;;;3.97;0.65;;;;;;;22.29;66.49;100916.97;7383510;19;20010;-66
2022/08/22 12:11:15;;;;;;;3.10;0.85;;;;;;;22.30;67.09;100910.53;7386169;19;20112;-66
2022/08/22 12:13:56;;;;;;;2.90;0.20;;;;;;;22.32;66.79;100911.16;7385443;19;20053;-67
2022/08/22 12:17:04;;;;;;;3.05;0.40;;;;;;;22.33;67.23;100907.41;7383327;19;20495;-67
2022/08/22 12:19:41;;;;;;;2.35;0.40;;;;;;;22.33;66.75;100910.09;7381059;19;20091;-66
2022/08/22 12:22:48;;;;;;;2.88;0.47;;;;;;;22.37;67.06;100902.41;7385173;19;20026;-66
2022/08/22 12:25:37;;;;;;;7.13;2.78;;;;;;;22.38;66.85;100890.66;7385563;19;20545;-66
2022/08/22 12:28:35;;;;;;;8.45;3.38;;;;;;;22.40;67.09;100897.41;7386393;19;20462;-65
2022/08/22 12:31:45;;;;;;;5.45;1.88;;;;;;;22.46;67.77;100885.75;7386553;19;20092;-65
2022/08/22 12:34:28;;;;;;;3.08;0.60;;;;;;;22.50;67.17;100873.50;7381477;19;20014;-64
2022/08/22 12:37:15;;;;;;;3.80;0.60;;;;;;;22.51;66.83;100885.88;7383107;19;20379;-64
2022/08/22 12:39:53;;;;;;;1.92;0.30;;;;;;;22.50;66.41;100884.25;7382294;19;20948;-64
2022/08/22 12:42:41;;;;;;;3.92;0.38;;;;;;;22.49;66.58;100874.59;7380725;19;20418;-63
2022/08/22 12:45:22;;;;;;;1.33;0.30;;;;;;;22.49;66.34;100882.63;7380102;19;20070;-64
2022/08/22 12:48:13;;;;;;;1.83;0.43;;;;;;;22.52;66.84;100875.97;7382612;19;20097;-64
2022/08/22 12:50:47;;;;;;;4.18;0.32;;;;;;;22.56;66.62;100888.69;7379859;19;20031;-63
2022/08/22 12:53:26;;;;;;;3.22;0.30;;;;;;;22.58;66.10;100889.31;7384493;19;20095;-62